sensor_id;sensor_type;location;lat;lon;timestamp;pressure;altitude;pressure_sealevel;temperature;humidity
54172;BME280;40076;52.354;4.970;2024-02-21T00:00:53;102142.41;;;10.26;100.00
54172;BME280;40076;52.354;4.970;2024-02-21T00:03:18;102146.19;;;10.25;100.00
54172;BME280;40076;52.354;4.970;2024-02-21T00:05:44;102149.69;;;10.26;100.00
54172;BME280;40076;52.354;4.970;2024-02-21T00:08:10;102154.00;;;10.27;100.00
54172;BME280;40076;52.354;4.970;2024-02-21T00:10:35;102143.75;;;10.29;100.00
54172;BME280;40076;52.354;4.970;2024-02-21T00:13:01;102135.91;;;10.27;100.00
54172;BME280;40076;52.354;4.970;2024-02-21T00:15:26;102129.69;;;10.27;100.00
54172;BME280;40076;52.354;4.970;2024-02-21T00:17:52;102132.69;;;10.25;100.00
54172;BME280;40076;52.354;4.970;2024-02-21T00:20:18;102126.47;;;10.25;100.00
54172;BME280;40076;52.354;4.970;2024-02-21T00:22:46;102130.53;;;10.22;100.00
54172;BME280;40076;52.354;4.970;2024-02-21T00:25:11;102130.25;;;10.24;100.00
54172;BME280;40076;52.354;4.970;2024-02-21T00:27:37;102133.25;;;10.22;100.00
54172;BME280;40076;52.354;4.970;2024-02-21T00:30:03;102127.06;;;10.22;100.00
54172;BME280;40076;52.354;4.970;2024-02-21T00:32:28;102120.53;;;10.23;100.00
54172;BME280;40076;52.354;4.970;2024-02-21T00:34:54;102118.94;;;10.22;100.00
54172;BME280;40076;52.354;4.970;2024-02-21T00:37:19;102118.16;;;10.21;100.00
54172;BME280;40076;52.354;4.970;2024-02-21T00:39:45;102106.53;;;10.21;100.00
54172;BME280;40076;52.354;4.970;2024-02-21T00:42:10;102114.91;;;10.19;100.00
54172;BME280;40076;52.354;4.970;2024-02-21T00:44:36;102108.72;;;10.19;100.00
54172;BME280;40076;52.354;4.970;2024-02-21T00:47:01;102116.81;;;10.19;100.00
54172;BME280;40076;52.354;4.970;2024-02-21T00:49:26;102121.41;;;10.18;100.00
54172;BME280;40076;52.354;4.970;2024-02-21T00:51:52;102119.78;;;10.17;100.00
54172;BME280;40076;52.354;4.970;2024-02-21T00:54:17;102108.97;;;10.17;100.00
54172;BME280;40076;52.354;4.970;2024-02-21T00:56:43;102114.38;;;10.17;100.00
54172;BME280;40076;52.354;4.970;2024-02-21T00:59:08;102110.03;;;10.16;100.00
54172;BME280;40076;52.354;4.970;2024-02-21T01:01:36;102108.97;;;10.17;100.00
54172;BME280;40076;52.354;4.970;2024-02-21T01:04:07;102113.53;;;10.17;100.00
54172;BME280;40076;52.354;4.970;2024-02-21T01:06:32;102110.59;;;10.18;100.00
54172;BME280;40076;52.354;4.970;2024-02-21T01:08:57;102110.59;;;10.18;100.00
54172;BME280;40076;52.354;4.970;2024-02-21T01:11:23;102099.78;;;10.18;100.00
54172;BME280;40076;52.354;4.970;2024-02-21T01:13:50;102093.31;;;10.19;100.00
54172;BME280;40076;52.354;4.970;2024-02-21T01:16:16;102099.00;;;10.18;100.00
54172;BME280;40076;52.354;4.970;2024-02-21T01:18:41;102081.97;;;10.17;100.00
54172;BME280;40076;52.354;4.970;2024-02-21T01:21:07;102089.00;;;10.18;100.00
54172;BME280;40076;52.354;4.970;2024-02-21T01:23:34;102082.50;;;10.19;100.00
54172;BME280;40076;52.354;4.970;2024-02-21T01:25:59;102077.91;;;10.20;100.00
54172;BME280;40076;52.354;4.970;2024-02-21T01:28:25;102067.38;;;10.18;100.00
54172;BME280;40076;52.354;4.970;2024-02-21T01:30:52;102064.41;;;10.20;100.00
54172;BME280;40076;52.354;4.970;2024-02-21T01:33:18;102067.63;;;10.22;100.00
54172;BME280;40076;52.354;4.970;2024-02-21T01:35:44;102054.41;;;10.20;100.00
54172;BME280;40076;52.354;4.970;2024-02-21T01:38:09;102058.72;;;10.21;100.00
54172;BME280;40076;52.354;4.970;2024-02-21T01:40:38;102045.22;;;10.21;100.00
54172;BME280;40076;52.354;4.970;2024-02-21T01:43:03;102055.72;;;10.23;100.00
54172;BME280;40076;52.354;4.970;2024-02-21T01:45:29;102066.22;;;10.24;100.00
54172;BME280;40076;52.354;4.970;2024-02-21T01:47:54;102057.31;;;10.24;100.00
54172;BME280;40076;52.354;4.970;2024-02-21T01:50:21;102036.00;;;10.22;100.00
54172;BME280;40076;52.354;4.970;2024-02-21T01:52:48;102036.00;;;10.22;100.00
54172;BME280;40076;52.354;4.970;2024-02-21T01:55:15;102048.94;;;10.25;100.00
54172;BME280;40076;52.354;4.970;2024-02-21T01:57:42;102039.22;;;10.24;100.00
54172;BME280;40076;52.354;4.970;2024-02-21T02:00:12;102042.72;;;10.25;100.00
54172;BME280;40076;52.354;4.970;2024-02-21T02:02:38;102040.03;;;10.25;100.00
54172;BME280;40076;52.354;4.970;2024-02-21T02:05:04;102051.63;;;10.25;100.00
54172;BME280;40076;52.354;4.970;2024-02-21T02:07:31;102041.63;;;10.26;100.00
54172;BME280;40076;52.354;4.970;2024-02-21T02:09:57;102026.53;;;10.25;100.00
54172;BME280;40076;52.354;4.970;2024-02-21T02:12:22;102040.03;;;10.25;100.00
54172;BME280;40076;52.354;4.970;2024-02-21T02:15:00;102032.72;;;10.25;100.00
54172;BME280;40076;52.354;4.970;2024-02-21T02:17:26;102031.41;;;10.23;100.00
54172;BME280;40076;52.354;4.970;2024-02-21T02:19:51;102033.00;;;10.24;100.00
54172;BME280;40076;52.354;4.970;2024-02-21T02:22:22;102019.50;;;10.24;100.00
54172;BME280;40076;52.354;4.970;2024-02-21T02:24:47;102026.53;;;10.25;100.00
54172;BME280;40076;52.354;4.970;2024-02-21T02:27:13;102022.22;;;10.24;100.00
54172;BME280;40076;52.354;4.970;2024-02-21T02:29:38;102022.22;;;10.24;100.00
54172;BME280;40076;52.354;4.970;2024-02-21T02:32:04;102019.00;;;10.22;100.00
54172;BME280;40076;52.354;4.970;2024-02-21T02:34:30;102014.38;;;10.22;100.00
54172;BME280;40076;52.354;4.970;2024-02-21T02:36:57;102011.69;;;10.22;100.00
54172;BME280;40076;52.354;4.970;2024-02-21T02:39:22;102017.88;;;10.23;100.00
54172;BME280;40076;52.354;4.970;2024-02-21T02:41:47;102010.31;;;10.25;100.00
54172;BME280;40076;52.354;4.970;2024-02-21T02:44:13;102003.00;;;10.25;100.00
54172;BME280;40076;52.354;4.970;2024-02-21T02:46:40;102004.09;;;10.24;100.00
54172;BME280;40076;52.354;4.970;2024-02-21T02:49:06;102001.13;;;10.26;100.00
54172;BME280;40076;52.354;4.970;2024-02-21T02:51:31;101993.31;;;10.24;100.00
54172;BME280;40076;52.354;4.970;2024-02-21T02:53:57;101989.78;;;10.24;100.00
54172;BME280;40076;52.354;4.970;2024-02-21T02:56:25;101984.91;;;10.26;100.00
54172;BME280;40076;52.354;4.970;2024-02-21T02:58:50;101991.41;;;10.25;100.00
54172;BME280;40076;52.354;4.970;2024-02-21T03:01:15;101994.91;;;10.25;100.00
54172;BME280;40076;52.354;4.970;2024-02-21T03:03:41;101989.50;;;10.25;100.00
54172;BME280;40076;52.354;4.970;2024-02-21T03:06:06;101977.91;;;10.25;100.00
54172;BME280;40076;52.354;4.970;2024-02-21T03:08:32;101979.50;;;10.26;100.00
54172;BME280;40076;52.354;4.970;2024-02-21T03:10:58;101977.91;;;10.25;100.00
54172;BME280;40076;52.354;4.970;2024-02-21T03:13:25;101971.41;;;10.26;100.00
54172;BME280;40076;52.354;4.970;2024-02-21T03:15:50;101959.00;;;10.25;100.00
54172;BME280;40076;52.354;4.970;2024-02-21T03:18:16;101952.50;;;10.26;100.00
54172;BME280;40076;52.354;4.970;2024-02-21T03:20:44;101949.78;;;10.26;100.00
54172;BME280;40076;52.354;4.970;2024-02-21T03:23:09;101947.09;;;10.26;100.00
54172;BME280;40076;52.354;4.970;2024-02-21T03:25:35;101938.19;;;10.25;100.00
54172;BME280;40076;52.354;4.970;2024-02-21T03:28:00;101936.28;;;10.26;100.00
54172;BME280;40076;52.354;4.970;2024-02-21T03:30:27;101917.66;;;10.24;100.00
54172;BME280;40076;52.354;4.970;2024-02-21T03:32:52;101921.16;;;10.25;100.00
54172;BME280;40076;52.354;4.970;2024-02-21T03:35:17;101929.00;;;10.26;100.00
54172;BME280;40076;52.354;4.970;2024-02-21T03:37:45;101925.47;;;10.26;100.00
54172;BME280;40076;52.354;4.970;2024-02-21T03:40:11;101914.69;;;10.26;100.00
54172;BME280;40076;52.354;4.970;2024-02-21T03:42:37;101915.78;;;10.25;100.00
54172;BME280;40076;52.354;4.970;2024-02-21T03:45:03;101921.16;;;10.25;100.00
54172;BME280;40076;52.354;4.970;2024-02-21T03:47:29;101918.19;;;10.26;100.00
54172;BME280;40076;52.354;4.970;2024-02-21T03:49:56;101911.16;;;10.25;100.00
54172;BME280;40076;52.354;4.970;2024-02-21T03:52:25;101907.66;;;10.25;100.00
54172;BME280;40076;52.354;4.970;2024-02-21T03:54:50;101907.66;;;10.25;100.00
54172;BME280;40076;52.354;4.970;2024-02-21T03:57:16;101904.97;;;10.25;100.00
54172;BME280;40076;52.354;4.970;2024-02-21T03:59:42;101898.75;;;10.24;100.00
54172;BME280;40076;52.354;4.970;2024-02-21T04:02:08;101903.88;;;10.26;100.00
54172;BME280;40076;52.354;4.970;2024-02-21T04:04:34;101902.78;;;10.27;100.00
54172;BME280;40076;52.354;4.970;2024-02-21T04:07:02;101893.06;;;10.26;100.00
54172;BME280;40076;52.354;4.970;2024-02-21T04:09:32;101889.28;;;10.27;100.00
54172;BME280;40076;52.354;4.970;2024-02-21T04:11:57;101889.56;;;10.25;100.00
54172;BME280;40076;52.354;4.970;2024-02-21T04:14:25;101893.34;;;10.24;100.00
54172;BME280;40076;52.354;4.970;2024-02-21T04:16:50;101894.16;;;10.25;100.00
54172;BME280;40076;52.354;4.970;2024-02-21T04:19:15;101886.06;;;10.25;100.00
54172;BME280;40076;52.354;4.970;2024-02-21T04:21:41;101889.56;;;10.25;100.00
54172;BME280;40076;52.354;4.970;2024-02-21T04:24:06;101894.16;;;10.25;100.00
54172;BME280;40076;52.354;4.970;2024-02-21T04:26:31;101898.22;;;10.22;100.00
54172;BME280;40076;52.354;4.970;2024-02-21T04:28:57;101890.13;;;10.22;100.00
54172;BME280;40076;52.354;4.970;2024-02-21T04:31:22;101887.16;;;10.24;100.00
54172;BME280;40076;52.354;4.970;2024-02-21T04:33:48;101894.16;;;10.25;100.00
54172;BME280;40076;52.354;4.970;2024-02-21T04:36:13;101884.44;;;10.24;100.00
54172;BME280;40076;52.354;4.970;2024-02-21T04:38:39;101876.34;;;10.24;100.00
54172;BME280;40076;52.354;4.970;2024-02-21T04:41:05;101871.22;;;10.22;100.00
54172;BME280;40076;52.354;4.970;2024-02-21T04:43:33;101871.22;;;10.22;100.00
54172;BME280;40076;52.354;4.970;2024-02-21T04:46:01;101865.03;;;10.22;100.00
54172;BME280;40076;52.354;4.970;2024-02-21T04:48:26;101869.94;;;10.20;100.00
54172;BME280;40076;52.354;4.970;2024-02-21T04:50:52;101868.03;;;10.20;100.00
54172;BME280;40076;52.354;4.970;2024-02-21T04:53:17;101866.13;;;10.21;100.00
54172;BME280;40076;52.354;4.970;2024-02-21T04:55:45;101866.13;;;10.21;100.00
54172;BME280;40076;52.354;4.970;2024-02-21T04:58:10;101863.72;;;10.19;100.00
54172;BME280;40076;52.354;4.970;2024-02-21T05:00:35;101857.78;;;10.17;100.00
54172;BME280;40076;52.354;4.970;2024-02-21T05:03:01;101864.00;;;10.18;100.00
54172;BME280;40076;52.354;4.970;2024-02-21T05:05:26;101846.72;;;10.19;100.00
54172;BME280;40076;52.354;4.970;2024-02-21T05:07:52;101839.69;;;10.18;100.00
54172;BME280;40076;52.354;4.970;2024-02-21T05:10:17;101837.53;;;10.15;100.00
54172;BME280;40076;52.354;4.970;2024-02-21T05:12:44;101839.75;;;10.13;100.00
54172;BME280;40076;52.354;4.970;2024-02-21T05:15:10;101834.63;;;10.11;100.00
54172;BME280;40076;52.354;4.970;2024-02-21T05:17:35;101835.19;;;10.08;100.00
54172;BME280;40076;52.354;4.970;2024-02-21T05:20:00;101822.22;;;10.10;100.00
54172;BME280;40076;52.354;4.970;2024-02-21T05:22:26;101817.09;;;10.08;100.00
54172;BME280;40076;52.354;4.970;2024-02-21T05:24:51;101819.81;;;10.08;100.00
54172;BME280;40076;52.354;4.970;2024-02-21T05:27:17;101812.78;;;10.07;100.00
54172;BME280;40076;52.354;4.970;2024-02-21T05:29:42;101807.38;;;10.07;100.00
54172;BME280;40076;52.354;4.970;2024-02-21T05:32:07;101805.81;;;10.06;100.00
54172;BME280;40076;52.354;4.970;2024-02-21T05:34:35;101791.78;;;10.04;100.00
54172;BME280;40076;52.354;4.970;2024-02-21T05:37:01;101787.47;;;10.03;100.00
54172;BME280;40076;52.354;4.970;2024-02-21T05:39:26;101779.66;;;10.02;100.00
54172;BME280;40076;52.354;4.970;2024-02-21T05:41:52;101770.75;;;10.01;100.00
54172;BME280;40076;52.354;4.970;2024-02-21T05:44:18;101770.75;;;10.01;100.00
54172;BME280;40076;52.354;4.970;2024-02-21T05:46:44;101767.25;;;10.01;100.00
54172;BME280;40076;52.354;4.970;2024-02-21T05:49:10;101754.03;;;9.99;100.00
54172;BME280;40076;52.354;4.970;2024-02-21T05:51:35;101756.75;;;9.99;100.00
54172;BME280;40076;52.354;4.970;2024-02-21T05:54:03;101756.75;;;9.99;100.00
54172;BME280;40076;52.354;4.970;2024-02-21T05:56:28;101754.63;;;9.96;100.00
54172;BME280;40076;52.354;4.970;2024-02-21T05:58:54;101759.75;;;9.98;100.00
54172;BME280;40076;52.354;4.970;2024-02-21T06:01:19;101752.75;;;9.97;100.00
54172;BME280;40076;52.354;4.970;2024-02-21T06:03:47;101753.03;;;9.95;100.00
54172;BME280;40076;52.354;4.970;2024-02-21T06:06:12;101743.31;;;9.94;100.00
54172;BME280;40076;52.354;4.970;2024-02-21T06:08:40;101740.63;;;9.94;100.00
54172;BME280;40076;52.354;4.970;2024-02-21T06:11:05;101740.09;;;9.92;100.00
54172;BME280;40076;52.354;4.970;2024-02-21T06:13:30;101736.13;;;9.90;100.00
54172;BME280;40076;52.354;4.970;2024-02-21T06:15:56;101745.88;;;9.86;100.00
54172;BME280;40076;52.354;4.970;2024-02-21T06:18:21;101747.75;;;9.85;100.00
54172;BME280;40076;52.354;4.970;2024-02-21T06:20:47;101742.69;;;9.84;100.00
54172;BME280;40076;52.354;4.970;2024-02-21T06:23:12;101748.38;;;9.82;100.00
54172;BME280;40076;52.354;4.970;2024-02-21T06:25:38;101762.16;;;9.81;100.00
54172;BME280;40076;52.354;4.970;2024-02-21T06:28:05;101768.06;;;9.83;100.00
54172;BME280;40076;52.354;4.970;2024-02-21T06:30:30;101765.66;;;9.81;100.00
54172;BME280;40076;52.354;4.970;2024-02-21T06:32:55;101776.44;;;9.81;100.00
54172;BME280;40076;52.354;4.970;2024-02-21T06:35:21;101772.94;;;9.81;100.00
54172;BME280;40076;52.354;4.970;2024-02-21T06:37:46;101772.66;;;9.82;100.00
54172;BME280;40076;52.354;4.970;2024-02-21T06:40:16;101767.25;;;9.82;100.00
54172;BME280;40076;52.354;4.970;2024-02-21T06:42:41;101758.66;;;9.80;100.00
54172;BME280;40076;52.354;4.970;2024-02-21T06:45:07;101751.91;;;9.78;100.00
54172;BME280;40076;52.354;4.970;2024-02-21T06:47:32;101757.03;;;9.79;100.00
54172;BME280;40076;52.354;4.970;2024-02-21T06:49:57;101753.53;;;9.79;100.00
54172;BME280;40076;52.354;4.970;2024-02-21T06:52:23;101738.13;;;9.79;100.00
54172;BME280;40076;52.354;4.970;2024-02-21T06:54:50;101746.22;;;9.79;100.00
54172;BME280;40076;52.354;4.970;2024-02-21T06:57:15;101743.00;;;9.77;100.00
54172;BME280;40076;52.354;4.970;2024-02-21T06:59:41;101742.22;;;9.77;100.00
54172;BME280;40076;52.354;4.970;2024-02-21T07:02:09;101734.13;;;9.77;100.00
54172;BME280;40076;52.354;4.970;2024-02-21T07:04:35;101738.75;;;9.76;100.00
54172;BME280;40076;52.354;4.970;2024-02-21T07:07:00;101725.25;;;9.76;100.00
54172;BME280;40076;52.354;4.970;2024-02-21T07:09:26;101723.31;;;9.77;100.00
54172;BME280;40076;52.354;4.970;2024-02-21T07:11:51;101721.75;;;9.76;100.00
54172;BME280;40076;52.354;4.970;2024-02-21T07:14:18;101720.94;;;9.75;100.00
54172;BME280;40076;52.354;4.970;2024-02-21T07:16:46;101716.63;;;9.74;100.00
54172;BME280;40076;52.354;4.970;2024-02-21T07:19:14;101713.66;;;9.76;100.00
54172;BME280;40076;52.354;4.970;2024-02-21T07:21:39;101720.94;;;9.75;100.00
54172;BME280;40076;52.354;4.970;2024-02-21T07:24:07;101716.63;;;9.74;100.00
54172;BME280;40076;52.354;4.970;2024-02-21T07:26:33;101707.44;;;9.75;100.00
54172;BME280;40076;52.354;4.970;2024-02-21T07:28:58;101701.25;;;9.75;100.00
54172;BME280;40076;52.354;4.970;2024-02-21T07:31:23;101701.81;;;9.72;100.00
54172;BME280;40076;52.354;4.970;2024-02-21T07:33:49;101698.81;;;9.73;100.00
54172;BME280;40076;52.354;4.970;2024-02-21T07:36:15;101684.00;;;9.71;100.00
54172;BME280;40076;52.354;4.970;2024-02-21T07:38:40;101679.41;;;9.71;100.00
54172;BME280;40076;52.354;4.970;2024-02-21T07:41:07;101675.91;;;9.71;100.00
54172;BME280;40076;52.354;4.970;2024-02-21T07:43:32;101672.13;;;9.72;100.00
54172;BME280;40076;52.354;4.970;2024-02-21T07:45:58;101664.31;;;9.70;100.00
54172;BME280;40076;52.354;4.970;2024-02-21T07:48:23;101659.72;;;9.71;100.00
54172;BME280;40076;52.354;4.970;2024-02-21T07:50:50;101667.53;;;9.72;100.00
54172;BME280;40076;52.354;4.970;2024-02-21T07:53:16;101665.63;;;9.73;100.00
54172;BME280;40076;52.354;4.970;2024-02-21T07:55:41;101673.44;;;9.74;100.00
54172;BME280;40076;52.354;4.970;2024-02-21T07:58:07;101672.94;;;9.72;100.00
54172;BME280;40076;52.354;4.970;2024-02-21T08:00:32;101667.25;;;9.74;100.00
54172;BME280;40076;52.354;4.970;2024-02-21T08:02:58;101663.22;;;9.71;100.00
54172;BME280;40076;52.354;4.970;2024-02-21T08:05:26;101664.03;;;9.72;100.00
54172;BME280;40076;52.354;4.970;2024-02-21T08:07:51;101656.72;;;9.72;100.00
54172;BME280;40076;52.354;4.970;2024-02-21T08:10:16;101664.31;;;9.70;100.00
54172;BME280;40076;52.354;4.970;2024-02-21T08:12:42;101655.94;;;9.72;100.00
54172;BME280;40076;52.354;4.970;2024-02-21T08:15:08;101659.44;;;9.72;100.00
54172;BME280;40076;52.354;4.970;2024-02-21T08:17:36;101660.25;;;9.73;100.00
54172;BME280;40076;52.354;4.970;2024-02-21T08:20:01;101657.53;;;9.73;100.00
54172;BME280;40076;52.354;4.970;2024-02-21T08:22:27;101643.25;;;9.72;100.00
54172;BME280;40076;52.354;4.970;2024-02-21T08:24:53;101622.47;;;9.73;100.00
54172;BME280;40076;52.354;4.970;2024-02-21T08:27:19;101634.84;;;9.74;100.00
54172;BME280;40076;52.354;4.970;2024-02-21T08:29:44;101632.44;;;9.72;100.00
54172;BME280;40076;52.354;4.970;2024-02-21T08:32:10;101623.03;;;9.69;100.00
54172;BME280;40076;52.354;4.970;2024-02-21T08:34:58;101618.44;;;9.70;100.00
54172;BME280;40076;52.354;4.970;2024-02-21T08:37:23;101620.03;;;9.71;100.00
54172;BME280;40076;52.354;4.970;2024-02-21T08:39:53;101604.94;;;9.70;100.00
54172;BME280;40076;52.354;4.970;2024-02-21T08:42:24;101599.88;;;9.68;100.00
54172;BME280;40076;52.354;4.970;2024-02-21T08:45:02;101598.75;;;9.69;100.00
54172;BME280;40076;52.354;4.970;2024-02-21T08:47:46;101605.53;;;9.67;100.00
54172;BME280;40076;52.354;4.970;2024-02-21T08:50:14;101606.34;;;9.67;100.00
54172;BME280;40076;52.354;4.970;2024-02-21T08:52:45;101607.44;;;9.66;100.00
54172;BME280;40076;52.354;4.970;2024-02-21T08:55:25;101600.16;;;9.67;100.00
54172;BME280;40076;52.354;4.970;2024-02-21T08:58:12;101595.84;;;9.66;100.00
54172;BME280;40076;52.354;4.970;2024-02-21T09:00:39;101599.34;;;9.66;100.00
54172;BME280;40076;52.354;4.970;2024-02-21T09:03:07;101598.25;;;9.67;100.00
54172;BME280;40076;52.354;4.970;2024-02-21T09:05:54;101597.94;;;9.69;100.00
54172;BME280;40076;52.354;4.970;2024-02-21T09:08:46;101589.56;;;9.71;100.00
54172;BME280;40076;52.354;4.970;2024-02-21T09:18:44;101562.84;;;9.69;100.00
54172;BME280;40076;52.354;4.970;2024-02-21T09:25:04;101547.47;;;9.69;100.00
54172;BME280;40076;52.354;4.970;2024-02-21T09:28:00;101542.88;;;9.70;100.00
54172;BME280;40076;52.354;4.970;2024-02-21T09:31:19;101540.97;;;9.71;100.00
54172;BME280;40076;52.354;4.970;2024-02-21T09:34:44;101530.97;;;9.71;100.00
54172;BME280;40076;52.354;4.970;2024-02-21T09:37:45;101516.91;;;9.74;100.00
54172;BME280;40076;52.354;4.970;2024-02-21T09:54:08;101458.25;;;9.80;100.00
54172;BME280;40076;52.354;4.970;2024-02-21T10:00:04;101454.44;;;9.81;100.00
54172;BME280;40076;52.354;4.970;2024-02-21T10:06:11;101440.38;;;9.84;100.00
54172;BME280;40076;52.354;4.970;2024-02-21T10:08:37;101440.38;;;9.84;100.00
54172;BME280;40076;52.354;4.970;2024-02-21T10:11:05;101434.66;;;9.85;100.00
54172;BME280;40076;52.354;4.970;2024-02-21T10:13:43;101432.44;;;9.87;100.00
54172;BME280;40076;52.354;4.970;2024-02-21T10:16:10;101426.53;;;9.85;100.00
54172;BME280;40076;52.354;4.970;2024-02-21T10:18:35;101421.75;;;9.82;100.00
54172;BME280;40076;52.354;4.970;2024-02-21T10:21:07;101419.34;;;9.81;100.00
54172;BME280;40076;52.354;4.970;2024-02-21T10:23:45;101404.78;;;9.82;100.00
54172;BME280;40076;52.354;4.970;2024-02-21T10:26:13;101399.06;;;9.83;100.00
54172;BME280;40076;52.354;4.970;2024-02-21T10:28:42;101397.94;;;9.84;100.00
54172;BME280;40076;52.354;4.970;2024-02-21T10:31:26;101391.47;;;9.85;100.00
54172;BME280;40076;52.354;4.970;2024-02-21T10:34:01;101388.75;;;9.85;100.00
54172;BME280;40076;52.354;4.970;2024-02-21T10:36:30;101386.06;;;9.85;100.00
54172;BME280;40076;52.354;4.970;2024-02-21T10:39:06;101382.25;;;9.86;100.00
54172;BME280;40076;52.354;4.970;2024-02-21T10:41:36;101378.97;;;9.89;100.00
54172;BME280;40076;52.354;4.970;2024-02-21T10:44:18;101371.69;;;9.90;100.00
54172;BME280;40076;52.354;4.970;2024-02-21T10:46:52;101345.50;;;9.90;100.00
54172;BME280;40076;52.354;4.970;2024-02-21T11:06:17;101359.47;;;9.92;100.00
54172;BME280;40076;52.354;4.970;2024-02-21T11:09:04;101349.47;;;9.93;100.00
54172;BME280;40076;52.354;4.970;2024-02-21T11:11:44;101357.88;;;9.91;100.00
54172;BME280;40076;52.354;4.970;2024-02-21T11:18:25;101339.75;;;9.92;100.00
54172;BME280;40076;52.354;4.970;2024-02-21T11:20:59;101342.97;;;9.94;100.00
54172;BME280;40076;52.354;4.970;2024-02-21T11:23:28;101320.56;;;9.93;100.00
54172;BME280;40076;52.354;4.970;2024-02-21T11:26:18;101310.28;;;9.95;100.00
54172;BME280;40076;52.354;4.970;2024-02-21T11:29:01;101305.38;;;9.97;100.00
54172;BME280;40076;52.354;4.970;2024-02-21T11:31:47;101294.59;;;9.97;100.00
54172;BME280;40076;52.354;4.970;2024-02-21T11:34:12;101285.38;;;9.98;100.00
54172;BME280;40076;52.354;4.970;2024-02-21T11:36:52;101275.69;;;9.97;100.00
54172;BME280;40076;52.354;4.970;2024-02-21T11:39:24;101266.00;;;9.96;100.00
54172;BME280;40076;52.354;4.970;2024-02-21T11:42:06;101270.00;;;9.99;100.00
54172;BME280;40076;52.354;4.970;2024-02-21T11:44:46;101260.16;;;10.03;100.00
54172;BME280;40076;52.354;4.970;2024-02-21T11:47:31;101234.78;;;10.04;100.00
54172;BME280;40076;52.354;4.970;2024-02-21T11:50:16;101223.34;;;10.07;100.00
54172;BME280;40076;52.354;4.970;2024-02-21T11:52:55;101224.34;;;10.11;100.00
54172;BME280;40076;52.354;4.970;2024-02-21T11:55:31;101194.50;;;10.16;100.00
54172;BME280;40076;52.354;4.970;2024-02-21T11:57:59;101193.13;;;10.19;100.00
54172;BME280;40076;52.354;4.970;2024-02-21T12:00:35;101178.53;;;10.20;100.00
54172;BME280;40076;52.354;4.970;2024-02-21T12:03:03;101171.41;;;10.24;100.00
54172;BME280;40076;52.354;4.970;2024-02-21T12:05:29;101171.91;;;10.26;100.00
54172;BME280;40076;52.354;4.970;2024-02-21T12:07:58;101154.28;;;10.28;100.00
54172;BME280;40076;52.354;4.970;2024-02-21T12:10:29;101160.16;;;10.30;100.00
54172;BME280;40076;52.354;4.970;2024-02-21T12:13:13;101152.56;;;10.32;100.00
54172;BME280;40076;52.354;4.970;2024-02-21T12:15:42;101155.75;;;10.34;100.00
54172;BME280;40076;52.354;4.970;2024-02-21T12:18:12;101148.94;;;10.37;100.00
54172;BME280;40076;52.354;4.970;2024-02-21T12:20:40;101110.31;;;10.36;100.00
54172;BME280;40076;52.354;4.970;2024-02-21T12:23:21;101115.41;;;10.38;100.00
54172;BME280;40076;52.354;4.970;2024-02-21T12:25:51;101120.78;;;10.38;100.00
54172;BME280;40076;52.354;4.970;2024-02-21T12:28:19;101111.44;;;10.35;100.00
54172;BME280;40076;52.354;4.970;2024-02-21T12:30:44;101103.50;;;10.39;100.00
54172;BME280;40076;52.354;4.970;2024-02-21T12:33:17;101103.50;;;10.39;100.00
54172;BME280;40076;52.354;4.970;2024-02-21T12:35:43;101089.69;;;10.40;100.00
54172;BME280;40076;52.354;4.970;2024-02-21T12:38:09;101083.66;;;10.43;100.00
54172;BME280;40076;52.354;4.970;2024-02-21T12:40:44;101072.56;;;10.45;100.00
54172;BME280;40076;52.354;4.970;2024-02-21T12:43:10;101061.75;;;10.45;100.00
54172;BME280;40076;52.354;4.970;2024-02-21T12:45:36;101059.03;;;10.45;100.00
54172;BME280;40076;52.354;4.970;2024-02-21T12:48:01;101044.09;;;10.48;100.00
54172;BME280;40076;52.354;4.970;2024-02-21T12:50:27;101034.59;;;10.50;100.00
54172;BME280;40076;52.354;4.970;2024-02-21T12:52:52;101034.09;;;10.48;100.00
54172;BME280;40076;52.354;4.970;2024-02-21T12:55:18;101020.28;;;10.50;100.00
54172;BME280;40076;52.354;4.970;2024-02-21T12:57:43;101023.47;;;10.52;100.00
54172;BME280;40076;52.354;4.970;2024-02-21T13:00:09;101020.75;;;10.52;100.00
54172;BME280;40076;52.354;4.970;2024-02-21T13:02:43;101006.16;;;10.53;100.00
54172;BME280;40076;52.354;4.970;2024-02-21T13:05:11;100999.16;;;10.52;100.00
54172;BME280;40076;52.354;4.970;2024-02-21T13:07:37;100992.63;;;10.53;100.00
54172;BME280;40076;52.354;4.970;2024-02-21T13:10:02;100981.50;;;10.54;100.00
54172;BME280;40076;52.354;4.970;2024-02-21T13:12:33;100987.69;;;10.55;100.00
54172;BME280;40076;52.354;4.970;2024-02-21T13:14:59;100975.63;;;10.52;100.00
54172;BME280;40076;52.354;4.970;2024-02-21T13:17:30;100972.44;;;10.50;100.00
54172;BME280;40076;52.354;4.970;2024-02-21T13:19:59;100973.25;;;10.51;100.00
54172;BME280;40076;52.354;4.970;2024-02-21T13:22:25;100959.56;;;10.47;100.00
54172;BME280;40076;52.354;4.970;2024-02-21T13:24:53;100938.25;;;10.45;100.00
54172;BME280;40076;52.354;4.970;2024-02-21T13:27:21;100951.13;;;10.49;100.00
54172;BME280;40076;52.354;4.970;2024-02-21T13:29:52;100939.03;;;10.46;100.00
54172;BME280;40076;52.354;4.970;2024-02-21T13:32:18;100939.53;;;10.48;100.00
54172;BME280;40076;52.354;4.970;2024-02-21T13:34:44;100932.38;;;10.43;100.00
54172;BME280;40076;52.354;4.970;2024-02-21T13:37:12;100926.97;;;10.43;100.00
54172;BME280;40076;52.354;4.970;2024-02-21T13:39:41;100918.38;;;10.41;100.00
54172;BME280;40076;52.354;4.970;2024-02-21T13:42:07;100913.28;;;10.40;100.00